This is the latest recevied weather packets stored in our database for station/object KD9CCP. If no packets are shown the sender has not sent any weather packets the latest 10 day(s).
| Time | Temp. | Humidity | Pressure | Rain* | Wind** | Luminosity | Snow |
|---|---|---|---|---|---|---|---|
| 1777798050 | 8.89° C | 73% | 1009.3 hPa | 0 mm | - | 0 W/m² | - |
| 1777797748 | 8.89° C | 74% | 1009.4 hPa | 0 mm | - | 0 W/m² | - |
| 1777797446 | 8.89° C | 75% | 1009.4 hPa | 0 mm | - | 0 W/m² | - |
| 1777797143 | 8.89° C | 75% | 1009.5 hPa | 0 mm | - | 0 W/m² | - |
| 1777796839 | 8.89° C | 74% | 1009.8 hPa | 0 mm | - | 0 W/m² | - |
| 1777796536 | 9.44° C | 73% | 1009.5 hPa | 0 mm | - | 0 W/m² | - |
| 1777796231 | 9.44° C | 73% | 1009.8 hPa | 0 mm | - | 0 W/m² | - |
| 1777795929 | 9.44° C | 70% | 1009.7 hPa | 0 mm | - | 0 W/m² | - |
| 1777795624 | 9.44° C | 70% | 1009.5 hPa | 0 mm | - | 0 W/m² | - |
| 1777795321 | 9.44° C | 72% | 1009.5 hPa | 0 mm | - | 0 W/m² | - |
| 1777795018 | 8.89° C | 72% | 1009.3 hPa | 0 mm | - | 0 W/m² | - |
| 1777794714 | 9.44° C | 75% | 1009.3 hPa | 0 mm | - | 0 W/m² | - |
| 1777794410 | 8.33° C | 79% | 1009.4 hPa | 0 mm | - | 0 W/m² | - |
| 1777794105 | 8.89° C | 79% | 1009.6 hPa | 0 mm | - | 0 W/m² | - |
| 1777793802 | 8.89° C | 76% | 1009.7 hPa | 0 mm | - | 0 W/m² | - |
| 1777793501 | 8.33° C | 78% | 1009.7 hPa | 0 mm | - | 0 W/m² | - |
| 1777793198 | 7.78° C | 80% | 1009.5 hPa | 0 mm | - | 0 W/m² | - |
| 1777792895 | 8.33° C | 79% | 1009.5 hPa | 0 mm | - | 0 W/m² | - |
| 1777792591 | 8.33° C | 78% | 1009.7 hPa | 0 mm | - | 0 W/m² | - |
| 1777792288 | 8.89° C | 74% | 1009.7 hPa | 0 mm | - | 0 W/m² | - |
| 1777791985 | 8.89° C | 72% | 1009.6 hPa | 0 mm | - | 0 W/m² | - |
| 1777791684 | 10° C | 67% | 1009.8 hPa | 0 mm | - | 0 W/m² | - |
| 1777791380 | 10° C | 65% | 1010 hPa | 0 mm | - | 0 W/m² | - |
| 1777791078 | 9.44° C | 65% | 1009.8 hPa | 0 mm | - | 0 W/m² | - |
| 1777790775 | 9.44° C | 65% | 1009.8 hPa | 0 mm | - | 0 W/m² | - |
* Rain latest hour (hover to see other rain measurements)
** Current wind speed in m/s (hover to see current wind gust speed)